Aviation Digital Data Service (ADDS)

Output produced by METARs form (1924 UTC 31 January 2023)
found at http://www.aviationweather.gov/metar/data/
 
VTSG 311900Z 04003KT 350V100 6000 FEW020 SCT040 23/22 Q1010 NOSIG
VTSG 311800Z 04004KT 360V070 8000 FEW020 SCT040 23/22 Q1011 NOSIG
VTSG 311700Z 04003KT 330V080 9000 FEW020 SCT040 24/22 Q1011 NOSIG
VTSG 311600Z 04004KT 350V090 9000 FEW020 SCT040 24/22 Q1012 NOSIG
VTSG 311500Z 02004KT 330V080 9999 -RA FEW020 BKN045 24/22 Q1011 NOSIG
VTSG 311400Z 02004KT 340V070 9000 FEW021 BKN045 24/22 Q1011 NOSIG
VTSG 311300Z 02004KT 340V080 9999 FEW021 BKN045 25/23 Q1010 NOSIG
VTSG 311200Z 03004KT 360V070 9999 FEW021 BKN045 25/23 Q1009 NOSIG
VTSG 311100Z 03004KT 330V080 9999 BKN029 BKN033 26/24 Q1009 NOSIG
VTSG 311000Z 05003KT 360V090 9999 SCT025 BKN060 26/25 Q1008 RERA NOSIG
VTSG 310900Z 07008KT 030V090 4500 RA SCT027 BKN041 25/24 Q1008 BECMG TL0940 8000 NSW
VTSG 310800Z 02005KT 340V110 9999 FEW029 BKN060 29/23 Q1008 NOSIG
VTSG 310700Z 36008KT 330V060 9999 FEW029 SCT039 BKN057 30/23 Q1009 NOSIG
VTSG 310600Z 02004KT 340V070 9999 FEW026 SCT031 BKN046 28/23 Q1010 NOSIG
VTSG 310500Z 03004KT 310V090 9999 SCT020 BKN080 30/23 Q1011 NOSIG
VTSG 310400Z 07006KT 020V100 9999 SCT020 BKN080 29/23 Q1012 NOSIG
VTSG 310300Z 01006KT 330V080 9999 FEW020 BKN100 27/23 Q1012 NOSIG
VTSG 310200Z VRB04KT 9000 FEW020 BKN100 25/22 Q1012 NOSIG
VTSG 310100Z 03005KT 330V090 9999 FEW020 25/22 Q1012 NOSIG
VTSG 310000Z 02004KT 330V080 9999 FEW020 23/22 Q1011 NOSIG
VTSG 302300Z 02003KT 310V060 9999 FEW020 23/21 Q1010 NOSIG
VTSG 302200Z 01004KT 330V060 9999 FEW020 23/21 Q1010 NOSIG
VTSG 302100Z 03005KT 330V080 9999 FEW020 23/21 Q1010 NOSIG
VTSG 302000Z 02005KT 340V070 9999 FEW020 23/21 Q1010 NOSIG
VTSG 301900Z 01005KT 330V060 9999 FEW020 23/21 Q1011 NOSIG
TAF VTSG 311700Z 3118/0118 04006KT 9999 SCT020 
     TEMPO 0108/0112 -TSRA FEW018CB SCT020 BKN100